sensor_id;sensor_type;location;lat;lon;timestamp;P1;durP1;ratioP1;P2;durP2;ratioP2
9156;SDS011;4613;48.392;9.998;2023-04-29T00:00:07;2.10;;;2.00;;
9156;SDS011;4613;48.392;9.998;2023-04-29T00:03:00;2.90;;;2.57;;
9156;SDS011;4613;48.392;9.998;2023-04-29T00:05:50;2.47;;;2.20;;
9156;SDS011;4613;48.392;9.998;2023-04-29T00:08:39;2.57;;;2.37;;
9156;SDS011;4613;48.392;9.998;2023-04-29T00:11:29;2.60;;;2.40;;
9156;SDS011;4613;48.392;9.998;2023-04-29T00:14:18;2.30;;;1.93;;
9156;SDS011;4613;48.392;9.998;2023-04-29T00:17:07;2.50;;;2.17;;
9156;SDS011;4613;48.392;9.998;2023-04-29T00:19:57;2.03;;;1.83;;
9156;SDS011;4613;48.392;9.998;2023-04-29T00:22:47;2.87;;;2.40;;
9156;SDS011;4613;48.392;9.998;2023-04-29T00:25:37;9.87;;;2.90;;
9156;SDS011;4613;48.392;9.998;2023-04-29T00:28:27;2.40;;;2.20;;
9156;SDS011;4613;48.392;9.998;2023-04-29T00:31:16;2.40;;;2.10;;
9156;SDS011;4613;48.392;9.998;2023-04-29T00:34:05;2.57;;;2.17;;
9156;SDS011;4613;48.392;9.998;2023-04-29T00:36:55;2.27;;;1.90;;
9156;SDS011;4613;48.392;9.998;2023-04-29T00:39:45;2.67;;;2.17;;
9156;SDS011;4613;48.392;9.998;2023-04-29T00:42:34;2.63;;;2.03;;
9156;SDS011;4613;48.392;9.998;2023-04-29T00:45:23;2.80;;;1.83;;
9156;SDS011;4613;48.392;9.998;2023-04-29T00:48:13;2.07;;;1.87;;
9156;SDS011;4613;48.392;9.998;2023-04-29T00:51:03;2.40;;;1.87;;
9156;SDS011;4613;48.392;9.998;2023-04-29T00:53:55;2.20;;;2.00;;
9156;SDS011;4613;48.392;9.998;2023-04-29T00:56:45;1.90;;;1.80;;
9156;SDS011;4613;48.392;9.998;2023-04-29T00:59:35;2.40;;;2.20;;
9156;SDS011;4613;48.392;9.998;2023-04-29T01:02:26;2.30;;;2.10;;
9156;SDS011;4613;48.392;9.998;2023-04-29T01:05:16;2.23;;;2.03;;
9156;SDS011;4613;48.392;9.998;2023-04-29T01:11:01;2.07;;;1.87;;
9156;SDS011;4613;48.392;9.998;2023-04-29T01:14:00;2.00;;;1.90;;
9156;SDS011;4613;48.392;9.998;2023-04-29T01:16:54;2.37;;;1.93;;
9156;SDS011;4613;48.392;9.998;2023-04-29T01:19:49;3.23;;;2.30;;
9156;SDS011;4613;48.392;9.998;2023-04-29T01:22:43;3.07;;;2.27;;
9156;SDS011;4613;48.392;9.998;2023-04-29T01:25:33;2.30;;;2.10;;
9156;SDS011;4613;48.392;9.998;2023-04-29T01:31:57;2.00;;;1.80;;
9156;SDS011;4613;48.392;9.998;2023-04-29T01:34:54;1.80;;;1.70;;
9156;SDS011;4613;48.392;9.998;2023-04-29T01:37:57;2.43;;;2.07;;
9156;SDS011;4613;48.392;9.998;2023-04-29T01:44:12;2.03;;;1.83;;
9156;SDS011;4613;48.392;9.998;2023-04-29T01:47:05;3.40;;;2.17;;
9156;SDS011;4613;48.392;9.998;2023-04-29T01:50:02;3.27;;;2.33;;
9156;SDS011;4613;48.392;9.998;2023-04-29T01:52:52;2.40;;;2.17;;
9156;SDS011;4613;48.392;9.998;2023-04-29T01:55:42;2.47;;;2.23;;
9156;SDS011;4613;48.392;9.998;2023-04-29T01:58:48;4.00;;;2.77;;
9156;SDS011;4613;48.392;9.998;2023-04-29T02:01:53;4.07;;;2.47;;
9156;SDS011;4613;48.392;9.998;2023-04-29T02:04:44;3.73;;;2.83;;
9156;SDS011;4613;48.392;9.998;2023-04-29T02:07:34;3.40;;;2.70;;
9156;SDS011;4613;48.392;9.998;2023-04-29T02:10:24;3.10;;;2.80;;
9156;SDS011;4613;48.392;9.998;2023-04-29T02:13:23;3.73;;;2.90;;
9156;SDS011;4613;48.392;9.998;2023-04-29T02:16:13;3.63;;;2.90;;
9156;SDS011;4613;48.392;9.998;2023-04-29T02:19:17;3.53;;;2.60;;
9156;SDS011;4613;48.392;9.998;2023-04-29T02:22:07;3.20;;;2.90;;
9156;SDS011;4613;48.392;9.998;2023-04-29T02:24:57;3.40;;;3.10;;
9156;SDS011;4613;48.392;9.998;2023-04-29T02:27:46;4.70;;;2.80;;
9156;SDS011;4613;48.392;9.998;2023-04-29T02:30:35;7.03;;;2.97;;
9156;SDS011;4613;48.392;9.998;2023-04-29T02:33:25;3.17;;;2.53;;
9156;SDS011;4613;48.392;9.998;2023-04-29T02:36:14;4.10;;;2.53;;
9156;SDS011;4613;48.392;9.998;2023-04-29T02:39:03;3.17;;;2.70;;
9156;SDS011;4613;48.392;9.998;2023-04-29T02:41:53;2.90;;;2.60;;
9156;SDS011;4613;48.392;9.998;2023-04-29T02:44:43;2.87;;;2.50;;
9156;SDS011;4613;48.392;9.998;2023-04-29T02:47:33;3.10;;;2.50;;
9156;SDS011;4613;48.392;9.998;2023-04-29T02:50:22;3.80;;;2.50;;
9156;SDS011;4613;48.392;9.998;2023-04-29T02:53:14;3.07;;;2.57;;
9156;SDS011;4613;48.392;9.998;2023-04-29T02:56:04;4.27;;;2.70;;
9156;SDS011;4613;48.392;9.998;2023-04-29T02:58:54;2.80;;;2.53;;
9156;SDS011;4613;48.392;9.998;2023-04-29T03:01:44;2.90;;;2.40;;
9156;SDS011;4613;48.392;9.998;2023-04-29T03:04:35;4.40;;;2.60;;
9156;SDS011;4613;48.392;9.998;2023-04-29T03:07:24;3.30;;;2.77;;
9156;SDS011;4613;48.392;9.998;2023-04-29T03:10:14;3.17;;;2.73;;
9156;SDS011;4613;48.392;9.998;2023-04-29T03:13:05;3.20;;;2.70;;
9156;SDS011;4613;48.392;9.998;2023-04-29T03:15:58;2.83;;;2.53;;
9156;SDS011;4613;48.392;9.998;2023-04-29T03:18:48;3.43;;;2.77;;
9156;SDS011;4613;48.392;9.998;2023-04-29T03:21:37;3.57;;;2.90;;
9156;SDS011;4613;48.392;9.998;2023-04-29T03:24:27;3.60;;;2.80;;
9156;SDS011;4613;48.392;9.998;2023-04-29T03:27:17;3.00;;;2.57;;
9156;SDS011;4613;48.392;9.998;2023-04-29T03:30:07;4.37;;;2.77;;
9156;SDS011;4613;48.392;9.998;2023-04-29T03:33:00;3.50;;;2.90;;
9156;SDS011;4613;48.392;9.998;2023-04-29T03:35:51;2.57;;;2.37;;
9156;SDS011;4613;48.392;9.998;2023-04-29T03:38:53;2.93;;;2.37;;
9156;SDS011;4613;48.392;9.998;2023-04-29T03:41:42;3.13;;;2.43;;
9156;SDS011;4613;48.392;9.998;2023-04-29T03:44:31;2.80;;;2.43;;
9156;SDS011;4613;48.392;9.998;2023-04-29T03:47:21;3.33;;;2.73;;
9156;SDS011;4613;48.392;9.998;2023-04-29T03:50:11;3.00;;;2.67;;
9156;SDS011;4613;48.392;9.998;2023-04-29T03:53:01;3.00;;;2.23;;
9156;SDS011;4613;48.392;9.998;2023-04-29T03:55:51;3.20;;;2.40;;
9156;SDS011;4613;48.392;9.998;2023-04-29T03:58:41;2.60;;;2.40;;
9156;SDS011;4613;48.392;9.998;2023-04-29T04:01:30;2.63;;;2.40;;
9156;SDS011;4613;48.392;9.998;2023-04-29T04:04:20;4.90;;;2.30;;
9156;SDS011;4613;48.392;9.998;2023-04-29T04:07:12;2.77;;;2.27;;
9156;SDS011;4613;48.392;9.998;2023-04-29T04:10:21;2.77;;;2.40;;
9156;SDS011;4613;48.392;9.998;2023-04-29T04:13:10;2.27;;;2.03;;
9156;SDS011;4613;48.392;9.998;2023-04-29T04:16:00;4.93;;;2.40;;
9156;SDS011;4613;48.392;9.998;2023-04-29T04:18:49;4.80;;;2.67;;
9156;SDS011;4613;48.392;9.998;2023-04-29T04:21:39;3.43;;;2.50;;
9156;SDS011;4613;48.392;9.998;2023-04-29T04:24:32;2.33;;;2.10;;
9156;SDS011;4613;48.392;9.998;2023-04-29T04:27:21;3.43;;;2.83;;
9156;SDS011;4613;48.392;9.998;2023-04-29T04:30:11;2.63;;;2.40;;
9156;SDS011;4613;48.392;9.998;2023-04-29T04:33:00;3.70;;;2.90;;
9156;SDS011;4613;48.392;9.998;2023-04-29T04:35:50;3.70;;;2.63;;
9156;SDS011;4613;48.392;9.998;2023-04-29T04:38:40;3.97;;;2.90;;
9156;SDS011;4613;48.392;9.998;2023-04-29T04:41:33;2.73;;;2.40;;
9156;SDS011;4613;48.392;9.998;2023-04-29T04:44:24;3.80;;;2.80;;
9156;SDS011;4613;48.392;9.998;2023-04-29T04:47:31;3.77;;;2.87;;
9156;SDS011;4613;48.392;9.998;2023-04-29T04:50:27;2.63;;;2.43;;
9156;SDS011;4613;48.392;9.998;2023-04-29T04:53:17;3.27;;;2.70;;
9156;SDS011;4613;48.392;9.998;2023-04-29T04:56:13;3.13;;;2.83;;
9156;SDS011;4613;48.392;9.998;2023-04-29T04:59:03;4.43;;;3.37;;
9156;SDS011;4613;48.392;9.998;2023-04-29T05:01:52;3.20;;;2.80;;
9156;SDS011;4613;48.392;9.998;2023-04-29T05:04:41;3.83;;;3.13;;
9156;SDS011;4613;48.392;9.998;2023-04-29T05:07:31;4.63;;;3.50;;
9156;SDS011;4613;48.392;9.998;2023-04-29T05:10:26;3.90;;;2.80;;
9156;SDS011;4613;48.392;9.998;2023-04-29T05:13:18;3.80;;;3.00;;
9156;SDS011;4613;48.392;9.998;2023-04-29T05:16:08;4.90;;;3.50;;
9156;SDS011;4613;48.392;9.998;2023-04-29T05:19:01;2.93;;;2.47;;
9156;SDS011;4613;48.392;9.998;2023-04-29T05:21:54;4.40;;;3.30;;
9156;SDS011;4613;48.392;9.998;2023-04-29T05:24:43;3.40;;;2.60;;
9156;SDS011;4613;48.392;9.998;2023-04-29T05:27:33;2.80;;;2.53;;
9156;SDS011;4613;48.392;9.998;2023-04-29T05:30:23;4.77;;;3.23;;
9156;SDS011;4613;48.392;9.998;2023-04-29T05:33:13;4.40;;;3.30;;
9156;SDS011;4613;48.392;9.998;2023-04-29T05:36:02;4.63;;;3.07;;
9156;SDS011;4613;48.392;9.998;2023-04-29T05:38:52;4.40;;;3.23;;
9156;SDS011;4613;48.392;9.998;2023-04-29T05:41:41;5.03;;;2.97;;
9156;SDS011;4613;48.392;9.998;2023-04-29T06:20:50;8.60;;;5.50;;
9156;SDS011;4613;48.392;9.998;2023-04-29T06:23:39;7.00;;;4.83;;
9156;SDS011;4613;48.392;9.998;2023-04-29T06:26:37;7.20;;;4.97;;
9156;SDS011;4613;48.392;9.998;2023-04-29T06:29:26;10.83;;;5.17;;
9156;SDS011;4613;48.392;9.998;2023-04-29T06:32:16;10.27;;;5.40;;
9156;SDS011;4613;48.392;9.998;2023-04-29T06:35:07;8.10;;;4.87;;
9156;SDS011;4613;48.392;9.998;2023-04-29T06:38:12;7.90;;;4.73;;
9156;SDS011;4613;48.392;9.998;2023-04-29T06:41:21;6.37;;;4.17;;
9156;SDS011;4613;48.392;9.998;2023-04-29T06:44:14;4.30;;;3.40;;
9156;SDS011;4613;48.392;9.998;2023-04-29T06:47:14;3.83;;;3.37;;
9156;SDS011;4613;48.392;9.998;2023-04-29T06:50:23;4.37;;;3.07;;
9156;SDS011;4613;48.392;9.998;2023-04-29T06:53:12;2.50;;;2.30;;
9156;SDS011;4613;48.392;9.998;2023-04-29T06:56:03;4.17;;;3.53;;
9156;SDS011;4613;48.392;9.998;2023-04-29T06:58:53;2.83;;;2.63;;
9156;SDS011;4613;48.392;9.998;2023-04-29T07:01:42;3.70;;;3.03;;
9156;SDS011;4613;48.392;9.998;2023-04-29T07:04:31;2.40;;;2.20;;
9156;SDS011;4613;48.392;9.998;2023-04-29T07:07:25;2.60;;;2.40;;
9156;SDS011;4613;48.392;9.998;2023-04-29T07:10:15;2.93;;;2.57;;
9156;SDS011;4613;48.392;9.998;2023-04-29T07:13:05;2.40;;;2.20;;
9156;SDS011;4613;48.392;9.998;2023-04-29T07:15:54;2.30;;;2.10;;
9156;SDS011;4613;48.392;9.998;2023-04-29T07:18:44;2.67;;;2.27;;
9156;SDS011;4613;48.392;9.998;2023-04-29T07:21:33;2.30;;;2.10;;
9156;SDS011;4613;48.392;9.998;2023-04-29T07:24:29;2.30;;;2.10;;
9156;SDS011;4613;48.392;9.998;2023-04-29T07:27:19;2.40;;;2.20;;
9156;SDS011;4613;48.392;9.998;2023-04-29T07:30:08;2.30;;;2.10;;
9156;SDS011;4613;48.392;9.998;2023-04-29T07:32:58;2.30;;;2.10;;
9156;SDS011;4613;48.392;9.998;2023-04-29T07:35:48;3.27;;;1.97;;
9156;SDS011;4613;48.392;9.998;2023-04-29T07:38:38;1.37;;;1.27;;
9156;SDS011;4613;48.392;9.998;2023-04-29T07:41:27;1.20;;;1.10;;
9156;SDS011;4613;48.392;9.998;2023-04-29T07:44:17;2.33;;;1.30;;
9156;SDS011;4613;48.392;9.998;2023-04-29T07:47:07;1.37;;;1.27;;
9156;SDS011;4613;48.392;9.998;2023-04-29T07:49:57;1.00;;;1.00;;
9156;SDS011;4613;48.392;9.998;2023-04-29T07:52:46;1.27;;;1.20;;
9156;SDS011;4613;48.392;9.998;2023-04-29T07:55:38;1.60;;;1.20;;
9156;SDS011;4613;48.392;9.998;2023-04-29T07:58:28;0.90;;;0.90;;
9156;SDS011;4613;48.392;9.998;2023-04-29T08:01:18;1.03;;;1.03;;
9156;SDS011;4613;48.392;9.998;2023-04-29T08:04:08;0.90;;;0.90;;
9156;SDS011;4613;48.392;9.998;2023-04-29T08:07:07;1.13;;;1.03;;
9156;SDS011;4613;48.392;9.998;2023-04-29T08:09:58;1.93;;;1.50;;
9156;SDS011;4613;48.392;9.998;2023-04-29T08:12:47;1.30;;;1.20;;
9156;SDS011;4613;48.392;9.998;2023-04-29T08:15:37;1.10;;;1.10;;
9156;SDS011;4613;48.392;9.998;2023-04-29T08:18:27;1.40;;;1.40;;
9156;SDS011;4613;48.392;9.998;2023-04-29T08:21:16;1.30;;;1.20;;
9156;SDS011;4613;48.392;9.998;2023-04-29T08:24:06;2.20;;;1.00;;
9156;SDS011;4613;48.392;9.998;2023-04-29T08:26:55;0.90;;;0.90;;
9156;SDS011;4613;48.392;9.998;2023-04-29T08:29:47;0.90;;;0.90;;
9156;SDS011;4613;48.392;9.998;2023-04-29T08:32:37;0.90;;;0.90;;
9156;SDS011;4613;48.392;9.998;2023-04-29T08:35:26;0.87;;;0.87;;
9156;SDS011;4613;48.392;9.998;2023-04-29T08:38:15;8.03;;;0.90;;
9156;SDS011;4613;48.392;9.998;2023-04-29T08:41:08;1.53;;;0.80;;
9156;SDS011;4613;48.392;9.998;2023-04-29T08:43:58;1.00;;;1.00;;
9156;SDS011;4613;48.392;9.998;2023-04-29T08:46:48;0.63;;;0.63;;
9156;SDS011;4613;48.392;9.998;2023-04-29T08:49:39;1.43;;;0.87;;
9156;SDS011;4613;48.392;9.998;2023-04-29T08:52:32;1.30;;;0.90;;
9156;SDS011;4613;48.392;9.998;2023-04-29T08:55:21;0.80;;;0.80;;
9156;SDS011;4613;48.392;9.998;2023-04-29T08:58:12;1.30;;;1.20;;
9156;SDS011;4613;48.392;9.998;2023-04-29T09:01:02;0.87;;;0.87;;
9156;SDS011;4613;48.392;9.998;2023-04-29T09:07:29;0.90;;;0.90;;
9156;SDS011;4613;48.392;9.998;2023-04-29T09:10:21;0.70;;;0.70;;
9156;SDS011;4613;48.392;9.998;2023-04-29T09:16:19;0.90;;;0.90;;
9156;SDS011;4613;48.392;9.998;2023-04-29T09:19:10;0.90;;;0.90;;
9156;SDS011;4613;48.392;9.998;2023-04-29T09:22:00;0.60;;;0.60;;
9156;SDS011;4613;48.392;9.998;2023-04-29T09:24:55;0.80;;;0.80;;
9156;SDS011;4613;48.392;9.998;2023-04-29T09:28:13;0.80;;;0.80;;
9156;SDS011;4613;48.392;9.998;2023-04-29T09:31:03;0.63;;;0.63;;
9156;SDS011;4613;48.392;9.998;2023-04-29T09:33:55;0.90;;;0.90;;
9156;SDS011;4613;48.392;9.998;2023-04-29T09:39:38;0.80;;;0.80;;
9156;SDS011;4613;48.392;9.998;2023-04-29T09:42:27;1.63;;;0.83;;
9156;SDS011;4613;48.392;9.998;2023-04-29T09:45:36;0.80;;;0.80;;
9156;SDS011;4613;48.392;9.998;2023-04-29T09:48:30;0.80;;;0.80;;
9156;SDS011;4613;48.392;9.998;2023-04-29T09:51:21;0.70;;;0.70;;
9156;SDS011;4613;48.392;9.998;2023-04-29T09:54:29;1.00;;;1.00;;
9156;SDS011;4613;48.392;9.998;2023-04-29T09:57:19;1.10;;;1.10;;
9156;SDS011;4613;48.392;9.998;2023-04-29T10:00:13;1.93;;;1.30;;
9156;SDS011;4613;48.392;9.998;2023-04-29T10:03:03;1.00;;;1.00;;
9156;SDS011;4613;48.392;9.998;2023-04-29T10:05:54;1.83;;;1.40;;
9156;SDS011;4613;48.392;9.998;2023-04-29T10:08:46;0.93;;;0.93;;
9156;SDS011;4613;48.392;9.998;2023-04-29T10:11:36;1.10;;;0.90;;
9156;SDS011;4613;48.392;9.998;2023-04-29T10:14:28;1.07;;;1.03;;
9156;SDS011;4613;48.392;9.998;2023-04-29T10:17:23;0.97;;;0.97;;
9156;SDS011;4613;48.392;9.998;2023-04-29T10:20:37;0.80;;;0.80;;
9156;SDS011;4613;48.392;9.998;2023-04-29T10:23:33;3.10;;;1.00;;
9156;SDS011;4613;48.392;9.998;2023-04-29T10:26:27;1.90;;;1.00;;
9156;SDS011;4613;48.392;9.998;2023-04-29T10:29:17;0.90;;;0.90;;
9156;SDS011;4613;48.392;9.998;2023-04-29T10:32:09;0.90;;;0.90;;
9156;SDS011;4613;48.392;9.998;2023-04-29T10:35:01;1.70;;;1.57;;
9156;SDS011;4613;48.392;9.998;2023-04-29T10:37:53;1.30;;;1.20;;
9156;SDS011;4613;48.392;9.998;2023-04-29T10:40:47;1.27;;;1.17;;
9156;SDS011;4613;48.392;9.998;2023-04-29T10:43:39;1.10;;;1.10;;
9156;SDS011;4613;48.392;9.998;2023-04-29T10:46:28;1.10;;;1.10;;
9156;SDS011;4613;48.392;9.998;2023-04-29T10:49:18;0.90;;;0.90;;
9156;SDS011;4613;48.392;9.998;2023-04-29T10:52:09;0.87;;;0.87;;
9156;SDS011;4613;48.392;9.998;2023-04-29T10:55:05;0.80;;;0.80;;
9156;SDS011;4613;48.392;9.998;2023-04-29T10:57:55;0.90;;;0.90;;
9156;SDS011;4613;48.392;9.998;2023-04-29T11:00:44;0.80;;;0.80;;
9156;SDS011;4613;48.392;9.998;2023-04-29T11:03:50;1.27;;;1.07;;
9156;SDS011;4613;48.392;9.998;2023-04-29T11:06:51;0.83;;;0.83;;
9156;SDS011;4613;48.392;9.998;2023-04-29T11:09:42;1.20;;;1.20;;
9156;SDS011;4613;48.392;9.998;2023-04-29T11:12:31;0.90;;;0.90;;
9156;SDS011;4613;48.392;9.998;2023-04-29T11:15:22;1.17;;;1.00;;
9156;SDS011;4613;48.392;9.998;2023-04-29T11:18:12;1.20;;;1.10;;
9156;SDS011;4613;48.392;9.998;2023-04-29T11:23:54;0.90;;;0.90;;
9156;SDS011;4613;48.392;9.998;2023-04-29T11:26:45;1.00;;;1.00;;
9156;SDS011;4613;48.392;9.998;2023-04-29T11:29:34;1.60;;;1.50;;
9156;SDS011;4613;48.392;9.998;2023-04-29T11:32:28;2.17;;;1.20;;
9156;SDS011;4613;48.392;9.998;2023-04-29T11:35:19;0.80;;;0.80;;
9156;SDS011;4613;48.392;9.998;2023-04-29T11:38:08;1.10;;;1.00;;
9156;SDS011;4613;48.392;9.998;2023-04-29T11:40:58;1.20;;;1.10;;
9156;SDS011;4613;48.392;9.998;2023-04-29T11:43:57;0.93;;;0.93;;
9156;SDS011;4613;48.392;9.998;2023-04-29T11:46:47;0.90;;;0.90;;
9156;SDS011;4613;48.392;9.998;2023-04-29T11:49:37;1.00;;;1.00;;
9156;SDS011;4613;48.392;9.998;2023-04-29T11:52:27;0.83;;;0.83;;
9156;SDS011;4613;48.392;9.998;2023-04-29T11:55:17;0.90;;;0.90;;
9156;SDS011;4613;48.392;9.998;2023-04-29T11:58:07;0.67;;;0.67;;
9156;SDS011;4613;48.392;9.998;2023-04-29T12:00:57;0.73;;;0.73;;
9156;SDS011;4613;48.392;9.998;2023-04-29T12:03:49;0.70;;;0.70;;
9156;SDS011;4613;48.392;9.998;2023-04-29T12:06:39;0.80;;;0.80;;
9156;SDS011;4613;48.392;9.998;2023-04-29T12:09:40;0.80;;;0.80;;
9156;SDS011;4613;48.392;9.998;2023-04-29T12:12:30;2.37;;;0.90;;
9156;SDS011;4613;48.392;9.998;2023-04-29T12:15:22;0.90;;;0.90;;
9156;SDS011;4613;48.392;9.998;2023-04-29T12:18:12;0.90;;;0.90;;
9156;SDS011;4613;48.392;9.998;2023-04-29T12:21:02;0.93;;;0.90;;
9156;SDS011;4613;48.392;9.998;2023-04-29T12:23:52;0.80;;;0.80;;
9156;SDS011;4613;48.392;9.998;2023-04-29T12:26:43;0.90;;;0.90;;
9156;SDS011;4613;48.392;9.998;2023-04-29T12:29:37;1.20;;;1.10;;
9156;SDS011;4613;48.392;9.998;2023-04-29T12:32:28;0.87;;;0.87;;
9156;SDS011;4613;48.392;9.998;2023-04-29T12:35:17;0.80;;;0.80;;
9156;SDS011;4613;48.392;9.998;2023-04-29T12:38:07;0.97;;;0.97;;
9156;SDS011;4613;48.392;9.998;2023-04-29T12:40:57;0.83;;;0.83;;
9156;SDS011;4613;48.392;9.998;2023-04-29T12:43:48;0.80;;;0.80;;
9156;SDS011;4613;48.392;9.998;2023-04-29T12:46:39;0.90;;;0.90;;
9156;SDS011;4613;48.392;9.998;2023-04-29T12:49:29;0.90;;;0.90;;
9156;SDS011;4613;48.392;9.998;2023-04-29T12:52:19;0.90;;;0.90;;
9156;SDS011;4613;48.392;9.998;2023-04-29T12:55:08;0.90;;;0.90;;
9156;SDS011;4613;48.392;9.998;2023-04-29T12:58:00;1.00;;;1.00;;
9156;SDS011;4613;48.392;9.998;2023-04-29T13:00:50;0.80;;;0.80;;
9156;SDS011;4613;48.392;9.998;2023-04-29T13:03:39;0.70;;;0.70;;
9156;SDS011;4613;48.392;9.998;2023-04-29T13:06:28;0.87;;;0.87;;
9156;SDS011;4613;48.392;9.998;2023-04-29T13:09:19;0.97;;;0.97;;
9156;SDS011;4613;48.392;9.998;2023-04-29T13:12:09;1.20;;;1.10;;
9156;SDS011;4613;48.392;9.998;2023-04-29T13:14:58;1.40;;;1.30;;
9156;SDS011;4613;48.392;9.998;2023-04-29T13:17:47;0.90;;;0.90;;
9156;SDS011;4613;48.392;9.998;2023-04-29T13:20:36;1.00;;;1.00;;
9156;SDS011;4613;48.392;9.998;2023-04-29T13:23:25;1.10;;;1.10;;
9156;SDS011;4613;48.392;9.998;2023-04-29T13:26:15;1.10;;;1.10;;
9156;SDS011;4613;48.392;9.998;2023-04-29T13:29:06;1.37;;;1.00;;
9156;SDS011;4613;48.392;9.998;2023-04-29T13:31:55;1.00;;;1.00;;
9156;SDS011;4613;48.392;9.998;2023-04-29T13:34:46;1.20;;;1.10;;
9156;SDS011;4613;48.392;9.998;2023-04-29T13:37:35;2.97;;;1.00;;
9156;SDS011;4613;48.392;9.998;2023-04-29T13:40:25;2.10;;;1.47;;
9156;SDS011;4613;48.392;9.998;2023-04-29T13:43:14;1.40;;;1.27;;
9156;SDS011;4613;48.392;9.998;2023-04-29T13:46:03;1.40;;;1.30;;
9156;SDS011;4613;48.392;9.998;2023-04-29T13:48:53;1.27;;;1.20;;
9156;SDS011;4613;48.392;9.998;2023-04-29T13:51:42;1.40;;;1.30;;
9156;SDS011;4613;48.392;9.998;2023-04-29T13:54:32;1.70;;;1.60;;
9156;SDS011;4613;48.392;9.998;2023-04-29T13:57:21;1.40;;;1.30;;
9156;SDS011;4613;48.392;9.998;2023-04-29T14:00:11;1.30;;;1.20;;
9156;SDS011;4613;48.392;9.998;2023-04-29T14:03:01;1.50;;;1.40;;
9156;SDS011;4613;48.392;9.998;2023-04-29T14:05:51;1.63;;;1.40;;
9156;SDS011;4613;48.392;9.998;2023-04-29T14:08:40;2.23;;;1.67;;
9156;SDS011;4613;48.392;9.998;2023-04-29T14:11:29;2.07;;;1.77;;
9156;SDS011;4613;48.392;9.998;2023-04-29T14:14:19;1.40;;;1.30;;
9156;SDS011;4613;48.392;9.998;2023-04-29T14:17:08;2.00;;;1.80;;
9156;SDS011;4613;48.392;9.998;2023-04-29T14:19:57;1.67;;;1.57;;
9156;SDS011;4613;48.392;9.998;2023-04-29T14:22:46;1.47;;;1.37;;
9156;SDS011;4613;48.392;9.998;2023-04-29T14:25:36;1.60;;;1.50;;
9156;SDS011;4613;48.392;9.998;2023-04-29T14:28:25;1.40;;;1.30;;
9156;SDS011;4613;48.392;9.998;2023-04-29T14:31:14;1.20;;;1.20;;
9156;SDS011;4613;48.392;9.998;2023-04-29T14:34:05;1.37;;;1.27;;
9156;SDS011;4613;48.392;9.998;2023-04-29T14:36:55;1.33;;;1.20;;
9156;SDS011;4613;48.392;9.998;2023-04-29T14:39:46;1.53;;;1.30;;
9156;SDS011;4613;48.392;9.998;2023-04-29T14:42:36;1.50;;;1.30;;
9156;SDS011;4613;48.392;9.998;2023-04-29T14:45:25;1.50;;;1.40;;
9156;SDS011;4613;48.392;9.998;2023-04-29T14:48:15;1.10;;;1.10;;
9156;SDS011;4613;48.392;9.998;2023-04-29T14:51:05;1.60;;;1.50;;
9156;SDS011;4613;48.392;9.998;2023-04-29T14:53:55;1.50;;;1.40;;
9156;SDS011;4613;48.392;9.998;2023-04-29T14:56:44;1.50;;;1.40;;
9156;SDS011;4613;48.392;9.998;2023-04-29T14:59:33;1.33;;;1.23;;
9156;SDS011;4613;48.392;9.998;2023-04-29T15:02:23;1.60;;;1.50;;
9156;SDS011;4613;48.392;9.998;2023-04-29T15:05:12;1.70;;;1.60;;
9156;SDS011;4613;48.392;9.998;2023-04-29T15:08:01;1.50;;;1.40;;
9156;SDS011;4613;48.392;9.998;2023-04-29T15:10:51;1.33;;;1.30;;
9156;SDS011;4613;48.392;9.998;2023-04-29T15:13:40;1.40;;;1.30;;
9156;SDS011;4613;48.392;9.998;2023-04-29T15:16:30;1.70;;;1.60;;
9156;SDS011;4613;48.392;9.998;2023-04-29T15:19:19;1.30;;;1.20;;
9156;SDS011;4613;48.392;9.998;2023-04-29T15:22:09;2.97;;;1.50;;
9156;SDS011;4613;48.392;9.998;2023-04-29T15:24:58;1.27;;;1.17;;
9156;SDS011;4613;48.392;9.998;2023-04-29T15:27:49;1.50;;;1.40;;
9156;SDS011;4613;48.392;9.998;2023-04-29T15:30:38;1.50;;;1.40;;
9156;SDS011;4613;48.392;9.998;2023-04-29T15:33:28;1.47;;;1.27;;
9156;SDS011;4613;48.392;9.998;2023-04-29T15:36:17;1.60;;;1.50;;
9156;SDS011;4613;48.392;9.998;2023-04-29T15:39:07;1.50;;;1.40;;
9156;SDS011;4613;48.392;9.998;2023-04-29T15:41:58;1.20;;;1.20;;
9156;SDS011;4613;48.392;9.998;2023-04-29T15:44:47;1.10;;;1.10;;
9156;SDS011;4613;48.392;9.998;2023-04-29T15:47:37;2.13;;;1.70;;
9156;SDS011;4613;48.392;9.998;2023-04-29T15:50:26;1.70;;;1.40;;
9156;SDS011;4613;48.392;9.998;2023-04-29T15:53:16;1.77;;;1.60;;
9156;SDS011;4613;48.392;9.998;2023-04-29T15:56:05;1.90;;;1.70;;
9156;SDS011;4613;48.392;9.998;2023-04-29T15:58:54;7.00;;;2.37;;
9156;SDS011;4613;48.392;9.998;2023-04-29T16:01:44;4.30;;;1.53;;
9156;SDS011;4613;48.392;9.998;2023-04-29T16:04:33;1.70;;;1.60;;
9156;SDS011;4613;48.392;9.998;2023-04-29T16:07:22;2.40;;;2.00;;
9156;SDS011;4613;48.392;9.998;2023-04-29T16:10:11;2.33;;;1.87;;
9156;SDS011;4613;48.392;9.998;2023-04-29T16:13:00;2.10;;;1.73;;
9156;SDS011;4613;48.392;9.998;2023-04-29T16:15:49;2.20;;;2.00;;
9156;SDS011;4613;48.392;9.998;2023-04-29T16:18:39;1.70;;;1.60;;
9156;SDS011;4613;48.392;9.998;2023-04-29T16:21:29;2.73;;;1.93;;
9156;SDS011;4613;48.392;9.998;2023-04-29T16:24:20;2.27;;;2.07;;
9156;SDS011;4613;48.392;9.998;2023-04-29T16:27:10;1.93;;;1.83;;
9156;SDS011;4613;48.392;9.998;2023-04-29T16:29:59;2.47;;;2.00;;
9156;SDS011;4613;48.392;9.998;2023-04-29T16:32:48;1.97;;;1.87;;
9156;SDS011;4613;48.392;9.998;2023-04-29T16:35:37;2.50;;;2.30;;
9156;SDS011;4613;48.392;9.998;2023-04-29T16:38:26;2.80;;;2.20;;
9156;SDS011;4613;48.392;9.998;2023-04-29T16:41:16;2.87;;;1.67;;
9156;SDS011;4613;48.392;9.998;2023-04-29T16:44:05;2.40;;;2.10;;
9156;SDS011;4613;48.392;9.998;2023-04-29T16:46:54;2.00;;;1.80;;
9156;SDS011;4613;48.392;9.998;2023-04-29T16:49:44;2.20;;;2.00;;
9156;SDS011;4613;48.392;9.998;2023-04-29T16:52:34;1.80;;;1.70;;
9156;SDS011;4613;48.392;9.998;2023-04-29T16:55:24;1.70;;;1.60;;
9156;SDS011;4613;48.392;9.998;2023-04-29T16:58:13;2.10;;;2.00;;
9156;SDS011;4613;48.392;9.998;2023-04-29T17:01:02;2.17;;;1.97;;
9156;SDS011;4613;48.392;9.998;2023-04-29T17:03:52;2.10;;;1.90;;
9156;SDS011;4613;48.392;9.998;2023-04-29T17:06:42;2.13;;;1.77;;
9156;SDS011;4613;48.392;9.998;2023-04-29T17:09:32;2.27;;;2.07;;
9156;SDS011;4613;48.392;9.998;2023-04-29T17:12:21;3.00;;;2.23;;
9156;SDS011;4613;48.392;9.998;2023-04-29T17:15:11;2.17;;;1.97;;
9156;SDS011;4613;48.392;9.998;2023-04-29T17:18:00;2.40;;;2.20;;
9156;SDS011;4613;48.392;9.998;2023-04-29T17:20:50;2.37;;;1.93;;
9156;SDS011;4613;48.392;9.998;2023-04-29T17:23:39;4.13;;;2.30;;
9156;SDS011;4613;48.392;9.998;2023-04-29T17:26:29;2.43;;;2.20;;
9156;SDS011;4613;48.392;9.998;2023-04-29T17:29:19;2.87;;;2.30;;
9156;SDS011;4613;48.392;9.998;2023-04-29T17:32:08;2.30;;;2.10;;
9156;SDS011;4613;48.392;9.998;2023-04-29T17:35:00;2.67;;;2.30;;
9156;SDS011;4613;48.392;9.998;2023-04-29T17:37:49;2.20;;;2.00;;
9156;SDS011;4613;48.392;9.998;2023-04-29T17:40:38;2.40;;;2.20;;
9156;SDS011;4613;48.392;9.998;2023-04-29T17:43:27;2.70;;;2.50;;
9156;SDS011;4613;48.392;9.998;2023-04-29T17:46:23;3.00;;;2.70;;
9156;SDS011;4613;48.392;9.998;2023-04-29T17:49:13;3.73;;;2.70;;
9156;SDS011;4613;48.392;9.998;2023-04-29T17:52:02;2.90;;;2.60;;
9156;SDS011;4613;48.392;9.998;2023-04-29T17:54:52;3.63;;;2.77;;
9156;SDS011;4613;48.392;9.998;2023-04-29T17:57:42;2.60;;;2.40;;
9156;SDS011;4613;48.392;9.998;2023-04-29T18:00:35;4.10;;;3.23;;
9156;SDS011;4613;48.392;9.998;2023-04-29T18:03:25;3.60;;;2.67;;
9156;SDS011;4613;48.392;9.998;2023-04-29T18:06:14;4.00;;;3.27;;
9156;SDS011;4613;48.392;9.998;2023-04-29T18:09:03;3.13;;;2.50;;
9156;SDS011;4613;48.392;9.998;2023-04-29T18:11:52;4.17;;;2.50;;
9156;SDS011;4613;48.392;9.998;2023-04-29T18:14:41;3.40;;;2.57;;
9156;SDS011;4613;48.392;9.998;2023-04-29T18:17:31;3.37;;;2.67;;
9156;SDS011;4613;48.392;9.998;2023-04-29T18:20:21;2.93;;;2.70;;
9156;SDS011;4613;48.392;9.998;2023-04-29T18:23:11;3.53;;;2.70;;
9156;SDS011;4613;48.392;9.998;2023-04-29T18:26:01;2.50;;;2.27;;
9156;SDS011;4613;48.392;9.998;2023-04-29T18:28:51;2.80;;;2.57;;
9156;SDS011;4613;48.392;9.998;2023-04-29T18:31:41;3.37;;;2.67;;
9156;SDS011;4613;48.392;9.998;2023-04-29T18:34:31;2.63;;;2.30;;
9156;SDS011;4613;48.392;9.998;2023-04-29T18:37:20;2.50;;;2.30;;
9156;SDS011;4613;48.392;9.998;2023-04-29T18:40:09;2.93;;;2.47;;